• Join FlightAware (Why Join?)
  • Login
  • US Flag 
06:45PM EDT


 

Airport Tracker/Info


-or-


 

Live Flight TrackerFlight Track Log ✈ ASQ4253 ✈ 07-Jun-2013 ✈ KIAH - KCAE

Flight Track Log - Related Links

Times and Time Zones

All times are in EDT time to prevent confusion due to time zone crossing. See the ASQ4253 flight status page for this flight to view local times or setup timezone preferences in your user account.

Time Position Orientation Groundspeed Altitude Reporting Facility
EDT Latitude Longitude Course Direction KTS MPH feet Rate Location/Type
03:07PM 29.9528 -95.3375 97° East 198 228 900  Level Houston Center
03:08PM 29.9067 -95.2706 128° Southeast 264 304 2,400 1,380 Climbing Houston Center
03:09PM 29.8817 -95.2272 124° Southeast 251 289 3,800 2,160 Climbing Houston Center
03:10PM 29.9096 -94.7811 95° East  Level FlightAware Approximate
03:10PM 29.8336 -95.1358 121° Southeast 276 318 6,400  Level Houston Center
03:11PM 29.8973 -94.6421 97° East  Level FlightAware Approximate
03:11PM 29.8350 -95.0419 89° East 289 333 8,400  Level Houston Center
03:12PM 29.8820 -94.5035 97° East  Level FlightAware Approximate
03:12PM 29.8386 -94.9456 88° East 296 341 10,400  Level Houston Center
03:13PM 29.8433 -94.8425 87° East 313 360 11,100 900 Climbing Houston Center
03:14PM 29.8475 -94.7272 88° East 347 399 12,300 1,200 Climbing Houston Center
03:15PM 29.8517 -94.6097 88° East 362 417 13,600 1,260 Climbing Houston Center
03:16PM 29.8575 -94.4642 87° East 374 430 15,000 1,200 Climbing Houston Center
03:17PM 29.8614 -94.3414 88° East 381 438 16,100 1,080 Climbing Houston Center
03:18PM 29.8597 -94.2172 91° East 387 445 17,300 1,020 Climbing Houston Center
03:19PM 29.8550 -94.1011 93° East 385 443 18,300 1,080 Climbing Houston Center
03:20PM 29.8628 -93.9514 87° East 391 450 19,600 1,080 Climbing Houston Center
03:21PM 29.8772 -93.8244 82° East 398 458 20,600 960 Climbing Houston Center
03:22PM 29.8903 -93.6967 83° East 403 464 21,700 960 Climbing Houston Center
03:23PM 29.9083 -93.5689 81° East 406 467 22,700 960 Climbing Houston Center
03:24PM 29.9308 -93.4411 78° East 411 473 23,800 1,140 Climbing Houston Center
03:25PM 29.9589 -93.2878 78° East 412 474 25,100 1,080 Climbing Houston Center
03:26PM 29.9806 -93.1592 79° East 412 474 26,100 960 Climbing Houston Center
03:28PM 30.0025 -93.0328 79° East 407 468 27,100 960 Climbing Houston Center
03:29PM 30.0247 -92.9050 79° East 407 468 28,200 960 Climbing Houston Center
03:30PM 30.0464 -92.7775 79° East 409 471 29,200 1,080 Climbing Houston Center
03:31PM 30.0728 -92.6250 79° East 407 468 30,500 1,140 Climbing Houston Center
03:32PM 30.0956 -92.4950 79° East 414 476 31,600 960 Climbing Houston Center
03:33PM 30.1169 -92.3658 79° East 414 476 32,600 660 Climbing Houston Center
03:34PM 30.1394 -92.2322 79° East 422 486 33,000 180 Climbing Houston Center
03:35PM 30.1633 -92.0919 79° East 443 510 33,000 360 Level Houston Center
03:36PM 30.1914 -91.9144 80° East 467 537 33,800 1,080 Climbing Houston Center
03:37PM 30.2153 -91.7719 79° East 461 531 35,300 1,320 Climbing Houston Center
03:38PM 30.2386 -91.6389 78° East 440 506 36,600 780 Climbing Houston Center
03:39PM 30.2603 -91.5036 79° East 430 495 37,000 180 Climbing Houston Center
03:40PM 30.2822 -91.3631 80° East 439 505 37,000  Level Houston Center
03:41PM 30.3122 -91.1867 79° East 462 532 37,000  Level Houston Center
03:42PM 30.3350 -91.0364 80° East 472 543 37,000  Level Houston Center
03:43PM 30.3589 -90.8831 80° East 480 552 37,000  Level Houston Center
03:44PM 30.3836 -90.7283 79° East 488 562 37,000  Level Houston Center
03:45PM 30.4069 -90.5758 80° East 484 557 37,000  Level Houston Center
03:46PM 30.4592 -90.4303 67° East 489 563 37,000  Level Houston Center
03:47PM 30.5347 -90.2578 63° Northeast 498 573 37,000  Level Houston Center
03:48PM 30.5986 -90.1119 63° Northeast 503 579 37,000  Level Houston Center
03:49PM 30.6617 -89.9664 63° Northeast 499 574 37,000  Level Houston Center
03:50PM 30.7247 -89.8222 63° Northeast 496 571 37,000  Level Houston Center
03:51PM 30.7864 -89.6775 64° Northeast 496 571 37,000  Level Houston Center
03:52PM 30.8492 -89.5339 63° Northeast 496 571 37,000  Level Houston Center
03:53PM 30.9106 -89.3889 64° Northeast 497 572 37,000  Level Houston Center
03:54PM 30.9856 -89.2150 63° Northeast 499 574 37,000  Level Houston Center
03:55PM 31.0456 -89.0681 64° Northeast 502 578 37,000  Level Houston Center
03:57PM 31.1064 -88.9228 64° Northeast 499 574 37,000  Level Houston Center
03:58PM 31.1667 -88.7803 64° Northeast 490 564 37,000  Level Houston Center
03:59PM 31.2286 -88.6356 63° Northeast 492 566 37,000  Level Houston Center
04:00PM 31.2906 -88.4883 64° Northeast 497 572 37,000  Level Houston Center
04:01PM 31.3544 -88.3419 63° Northeast 498 573 37,000  Level Houston Center
04:02PM 31.4267 -88.1617 65° Northeast 504 580 37,000  Level Houston Center
04:03PM 31.4853 -88.0136 65° Northeast 499 574 37,000  Level Houston Center
04:04PM 31.5397 -87.8647 67° East 495 570 37,000  Level Houston Center
04:05PM 31.5950 -87.7181 66° East 492 566 37,000  Level Houston Center
04:06PM 31.6544 -87.5739 64° Northeast 493 567 37,000  Level Atlanta Center
04:07PM 31.7064 -87.4269 67° East 493 567 37,000  Level Atlanta Center
04:08PM 31.7497 -87.2967 69° East 487 560 37,000  Level Atlanta Center
04:09PM 31.8056 -87.1522 66° East 487 560 37,000  Level Atlanta Center
04:10PM 31.8614 -87.0050 66° East 487 560 37,000  Level Atlanta Center
04:11PM 31.9169 -86.8600 66° East 487 560 37,000  Level Atlanta Center
04:12PM 31.9867 -86.7225 59° Northeast 487 560 37,000  Level Atlanta Center
04:13PM 32.0714 -86.5731 56° Northeast 487 560 37,000  Level Atlanta Center
04:14PM 32.1325 -86.4328 63° Northeast 482 555 37,000  Level Atlanta Center
04:15PM 32.1831 -86.2917 67° East 470 541 37,000  Level Atlanta Center
04:16PM 32.2275 -86.1381 71° East 475 547 37,000  Level Atlanta Center
04:17PM 32.2636 -85.9842 74° East 475 547 37,000  Level Atlanta Center
04:18PM 32.3056 -85.8328 72° East 475 547 37,000  Level Atlanta Center
04:19PM 32.3494 -85.6789 71° East 480 552 37,000  Level Atlanta Center
04:20PM 32.3950 -85.5344 69° East 480 552 37,000  Level Atlanta Center
04:21PM 32.4406 -85.3850 70° East 480 552 37,000  Level Atlanta Center
04:22PM 32.4881 -85.2381 69° East 480 552 37,000  Level Atlanta Center
04:23PM 32.5353 -85.0908 69° East 480 552 37,000  Level Atlanta Center
04:24PM 32.5867 -84.9461 67° East 475 547 37,000  Level Atlanta Center
04:25PM 32.6250 -84.8206 70° East 469 540 37,000 -240 Level Atlanta Center
04:26PM 32.6717 -84.6706 70° East 463 533 36,600 -480 Descending Atlanta Center
04:27PM 32.7183 -84.5178 70° East 476 548 36,100 -480 Descending Atlanta Center
04:28PM 32.7606 -84.3675 71° East 476 548 35,700 -540 Descending Atlanta Center
04:29PM 32.8069 -84.2069 71° East 481 554 35,100 -540 Descending Atlanta Center
04:30PM 32.8486 -84.0661 71° East 481 554 34,700 -420 Descending Atlanta Center
04:31PM 32.8903 -83.9175 71° East 486 559 34,300 -360 Descending Atlanta Center
04:32PM 32.9339 -83.7667 71° East 486 559 34,000 -180 Descending Atlanta Center
04:33PM 32.9753 -83.6131 72° East 486 559 34,000  Level Atlanta Center
04:34PM 33.0164 -83.4642 72° East 486 559 34,000  Level Atlanta Center
04:35PM 33.0636 -83.2953 72° East 486 559 34,000 -540 Level Atlanta Center
04:36PM 33.0919 -83.1611 76° East 475 547 33,000 -1,080 Descending Atlanta Center
04:37PM 33.1219 -83.0069 77° East 470 541 31,900 -1,860 Descending Atlanta Center
04:38PM 33.1581 -82.8378 76° East 475 547 29,300 -2,520 Descending Atlanta Center
04:39PM 33.1897 -82.6761 77° East 480 552 26,900 -2,280 Descending Atlanta Center
04:40PM 33.2236 -82.5364 74° East 485 558 24,800 -1,800 Descending Atlanta Center
04:41PM 33.2844 -82.3914 63° Northeast 485 558 23,300 -2,160 Descending Atlanta Center
04:42PM 33.3917 -82.1464 62° Northeast 467 537 18,900 -2,520 Descending Jacksonville Center
04:43PM 33.4494 -82.0139 62° Northeast 454 522 16,400 -2,400 Descending Jacksonville Center
04:44PM 33.4986 -81.8964 63° Northeast 425 489 14,100 -2,400 Descending Jacksonville Center
04:45PM 33.5478 -81.7836 62° Northeast 394 453 11,700 -1,500 Descending Jacksonville Center
04:46PM 33.5906 -81.6883 62° Northeast 353 406 11,100 -300 Descending Jacksonville Center
04:47PM 33.6375 -81.5828 62° Northeast 342 394 11,100  Level Jacksonville Center
04:48PM 33.6864 -81.4722 62° Northeast 354 407 11,100 -240 Level Jacksonville Center
04:49PM 33.7289 -81.3592 66° East 366 421 10,700 -1,320 Descending Jacksonville Center
04:50PM 33.7528 -81.2589 74° East 342 394 8,500 -2,580 Descending Jacksonville Center
04:51PM 33.7578 -81.1639 86° East 302 348 5,600 -2,760 Descending Jacksonville Center
04:52PM 33.7647 -81.0664 85° East 291 335 3,000 -1,620 Descending Jacksonville Center
04:53PM 33.7739 -80.9836 82° East 273 314 2,400 -300 Descending Jacksonville Center
04:54PM 33.8169 -80.9228 50° Northeast 239 275 2,400 -180 Level Jacksonville Center
04:55PM 33.8731 -80.9214 North 184 212 2,100 -300 Descending Jacksonville Center